sensor_id;sensor_type;location;lat;lon;timestamp;pressure;altitude;pressure_sealevel;temperature;humidity
22333;BME280;11334;36.986;-121.936;2023-02-17T00:01:12;101795.50;;;16.44;41.24
22333;BME280;11334;36.986;-121.936;2023-02-17T00:03:39;101803.69;;;16.43;41.57
22333;BME280;11334;36.986;-121.936;2023-02-17T00:06:07;101810.06;;;16.34;41.82
22333;BME280;11334;36.986;-121.936;2023-02-17T00:08:33;101806.56;;;16.33;41.47
22333;BME280;11334;36.986;-121.936;2023-02-17T00:11:00;101796.19;;;16.30;42.00
22333;BME280;11334;36.986;-121.936;2023-02-17T00:13:26;101791.84;;;16.29;42.54
22333;BME280;11334;36.986;-121.936;2023-02-17T00:15:52;101795.69;;;16.27;42.63
22333;BME280;11334;36.986;-121.936;2023-02-17T00:18:19;101773.75;;;16.08;43.73
22333;BME280;11334;36.986;-121.936;2023-02-17T00:20:45;101790.84;;;16.14;43.24
22333;BME280;11334;36.986;-121.936;2023-02-17T00:23:11;101795.47;;;16.12;43.95
22333;BME280;11334;36.986;-121.936;2023-02-17T00:25:38;101806.19;;;16.12;44.14
22333;BME280;11334;36.986;-121.936;2023-02-17T00:28:04;101795.97;;;16.08;44.24
22333;BME280;11334;36.986;-121.936;2023-02-17T00:30:31;101793.97;;;16.02;44.53
22333;BME280;11334;36.986;-121.936;2023-02-17T00:32:57;101790.63;;;15.92;44.91
22333;BME280;11334;36.986;-121.936;2023-02-17T00:35:24;101801.81;;;15.96;45.69
22333;BME280;11334;36.986;-121.936;2023-02-17T00:37:50;101802.34;;;15.99;44.29
22333;BME280;11334;36.986;-121.936;2023-02-17T00:40:16;101793.44;;;15.91;45.00
22333;BME280;11334;36.986;-121.936;2023-02-17T00:42:42;101791.63;;;15.91;44.24
22333;BME280;11334;36.986;-121.936;2023-02-17T00:45:09;101793.78;;;15.88;44.97
22333;BME280;11334;36.986;-121.936;2023-02-17T00:47:35;101786.25;;;15.83;45.07
22333;BME280;11334;36.986;-121.936;2023-02-17T00:50:01;101789.78;;;15.84;45.27
22333;BME280;11334;36.986;-121.936;2023-02-17T00:52:28;101792.94;;;15.80;46.21
22333;BME280;11334;36.986;-121.936;2023-02-17T00:54:54;101783.56;;;15.76;46.97
22333;BME280;11334;36.986;-121.936;2023-02-17T00:57:20;101791.09;;;15.72;47.20
22333;BME280;11334;36.986;-121.936;2023-02-17T00:59:46;101778.69;;;15.63;47.21
22333;BME280;11334;36.986;-121.936;2023-02-17T01:02:13;101784.38;;;15.60;47.06
22333;BME280;11334;36.986;-121.936;2023-02-17T01:04:39;101790.06;;;15.57;45.70
22333;BME280;11334;36.986;-121.936;2023-02-17T01:07:05;101782.50;;;15.45;46.49
22333;BME280;11334;36.986;-121.936;2023-02-17T01:09:31;101782.13;;;15.32;45.96
22333;BME280;11334;36.986;-121.936;2023-02-17T01:11:57;101777.06;;;15.21;46.23
22333;BME280;11334;36.986;-121.936;2023-02-17T01:14:24;101775.06;;;15.16;46.51
22333;BME280;11334;36.986;-121.936;2023-02-17T01:16:50;101783.97;;;15.07;46.55
22333;BME280;11334;36.986;-121.936;2023-02-17T01:19:17;101783.47;;;15.03;47.72
22333;BME280;11334;36.986;-121.936;2023-02-17T01:21:44;101785.13;;;15.04;47.25
22333;BME280;11334;36.986;-121.936;2023-02-17T01:24:11;101780.44;;;14.98;48.60
22333;BME280;11334;36.986;-121.936;2023-02-17T01:26:38;101782.06;;;14.91;49.03
22333;BME280;11334;36.986;-121.936;2023-02-17T01:29:05;101773.38;;;14.89;49.75
22333;BME280;11334;36.986;-121.936;2023-02-17T01:31:32;101777.53;;;14.84;49.68
22333;BME280;11334;36.986;-121.936;2023-02-17T01:34:01;101773.19;;;14.83;49.40
22333;BME280;11334;36.986;-121.936;2023-02-17T01:36:27;101759.94;;;14.66;49.85
22333;BME280;11334;36.986;-121.936;2023-02-17T01:38:54;101778.13;;;14.70;50.17
22333;BME280;11334;36.986;-121.936;2023-02-17T01:41:23;101774.41;;;14.63;50.17
22333;BME280;11334;36.986;-121.936;2023-02-17T01:44:08;101784.25;;;14.63;49.46
22333;BME280;11334;36.986;-121.936;2023-02-17T01:46:35;101775.66;;;14.52;50.43
22333;BME280;11334;36.986;-121.936;2023-02-17T01:49:26;101772.59;;;14.39;50.33
22333;BME280;11334;36.986;-121.936;2023-02-17T01:52:22;101789.56;;;14.38;50.68
22333;BME280;11334;36.986;-121.936;2023-02-17T01:54:55;101786.84;;;14.30;50.77
22333;BME280;11334;36.986;-121.936;2023-02-17T01:57:27;101782.44;;;14.21;51.08
22333;BME280;11334;36.986;-121.936;2023-02-17T01:59:54;101789.75;;;14.19;50.36
22333;BME280;11334;36.986;-121.936;2023-02-17T02:02:21;101790.84;;;14.09;51.43
22333;BME280;11334;36.986;-121.936;2023-02-17T02:04:51;101791.66;;;14.09;51.41
22333;BME280;11334;36.986;-121.936;2023-02-17T02:07:22;101792.25;;;14.03;51.41
22333;BME280;11334;36.986;-121.936;2023-02-17T02:09:53;101789.50;;;13.95;51.39
22333;BME280;11334;36.986;-121.936;2023-02-17T02:14:49;101792.63;;;13.91;51.99
22333;BME280;11334;36.986;-121.936;2023-02-17T02:20:22;101790.19;;;13.80;52.61
22333;BME280;11334;36.986;-121.936;2023-02-17T02:26:16;101789.03;;;13.65;52.93
22333;BME280;11334;36.986;-121.936;2023-02-17T02:34:14;101786.41;;;13.39;55.19
22333;BME280;11334;36.986;-121.936;2023-02-17T02:36:55;101788.75;;;13.25;55.72
22333;BME280;11334;36.986;-121.936;2023-02-17T02:39:30;101782.34;;;13.18;55.49
22333;BME280;11334;36.986;-121.936;2023-02-17T02:42:04;101774.66;;;13.15;55.36
22333;BME280;11334;36.986;-121.936;2023-02-17T02:44:31;101774.78;;;13.13;54.65
22333;BME280;11334;36.986;-121.936;2023-02-17T02:47:29;101774.09;;;13.11;54.88
22333;BME280;11334;36.986;-121.936;2023-02-17T02:49:52;101769.13;;;12.99;55.89
22333;BME280;11334;36.986;-121.936;2023-02-17T02:52:36;101767.63;;;12.87;55.89
22333;BME280;11334;36.986;-121.936;2023-02-17T03:00:55;101765.72;;;12.70;57.14
22333;BME280;11334;36.986;-121.936;2023-02-17T03:03:42;101763.78;;;12.63;56.86
22333;BME280;11334;36.986;-121.936;2023-02-17T03:06:21;101757.06;;;12.59;56.53
22333;BME280;11334;36.986;-121.936;2023-02-17T03:08:59;101751.34;;;12.54;56.14
22333;BME280;11334;36.986;-121.936;2023-02-17T03:11:30;101759.63;;;12.51;57.78
22333;BME280;11334;36.986;-121.936;2023-02-17T03:14:04;101753.50;;;12.41;58.41
22333;BME280;11334;36.986;-121.936;2023-02-17T03:16:33;101758.97;;;12.31;58.15
22333;BME280;11334;36.986;-121.936;2023-02-17T03:19:00;101760.94;;;12.29;57.39
22333;BME280;11334;36.986;-121.936;2023-02-17T03:21:36;101757.00;;;12.32;57.28
22333;BME280;11334;36.986;-121.936;2023-02-17T03:24:04;101765.13;;;12.31;57.35
22333;BME280;11334;36.986;-121.936;2023-02-17T03:26:30;101761.34;;;12.24;58.49
22333;BME280;11334;36.986;-121.936;2023-02-17T03:28:57;101765.56;;;12.17;58.57
22333;BME280;11334;36.986;-121.936;2023-02-17T03:31:23;101772.16;;;12.04;59.36
22333;BME280;11334;36.986;-121.936;2023-02-17T03:33:49;101767.25;;;11.99;58.99
22333;BME280;11334;36.986;-121.936;2023-02-17T03:36:15;101763.34;;;12.03;58.54
22333;BME280;11334;36.986;-121.936;2023-02-17T03:38:42;101749.38;;;11.83;58.41
22333;BME280;11334;36.986;-121.936;2023-02-17T03:41:08;101775.50;;;11.87;58.90
22333;BME280;11334;36.986;-121.936;2023-02-17T03:43:34;101768.13;;;11.81;59.41
22333;BME280;11334;36.986;-121.936;2023-02-17T03:46:00;101771.72;;;11.80;59.51
22333;BME280;11334;36.986;-121.936;2023-02-17T03:48:27;101769.78;;;11.73;59.47
22333;BME280;11334;36.986;-121.936;2023-02-17T03:50:53;101771.16;;;11.68;59.29
22333;BME280;11334;36.986;-121.936;2023-02-17T03:53:19;101766.69;;;11.59;59.99
22333;BME280;11334;36.986;-121.936;2023-02-17T03:55:46;101772.69;;;11.51;60.51
22333;BME280;11334;36.986;-121.936;2023-02-17T03:58:12;101770.31;;;11.58;59.88
22333;BME280;11334;36.986;-121.936;2023-02-17T04:00:38;101775.63;;;11.58;59.52
22333;BME280;11334;36.986;-121.936;2023-02-17T04:03:04;101766.22;;;11.35;61.05
22333;BME280;11334;36.986;-121.936;2023-02-17T04:05:30;101769.56;;;11.37;60.34
22333;BME280;11334;36.986;-121.936;2023-02-17T04:07:57;101777.66;;;11.35;60.34
22333;BME280;11334;36.986;-121.936;2023-02-17T04:10:23;101781.28;;;11.25;61.39
22333;BME280;11334;36.986;-121.936;2023-02-17T04:12:49;101778.63;;;11.25;61.52
22333;BME280;11334;36.986;-121.936;2023-02-17T04:15:15;101779.16;;;11.19;61.89
22333;BME280;11334;36.986;-121.936;2023-02-17T04:17:42;101777.47;;;11.18;61.89
22333;BME280;11334;36.986;-121.936;2023-02-17T04:20:08;101769.47;;;11.09;62.56
22333;BME280;11334;36.986;-121.936;2023-02-17T04:22:34;101778.44;;;11.08;62.09
22333;BME280;11334;36.986;-121.936;2023-02-17T04:25:01;101774.09;;;11.07;61.82
22333;BME280;11334;36.986;-121.936;2023-02-17T04:27:27;101776.16;;;11.03;61.75
22333;BME280;11334;36.986;-121.936;2023-02-17T04:29:53;101774.78;;;11.00;62.17
22333;BME280;11334;36.986;-121.936;2023-02-17T04:32:19;101771.13;;;11.01;61.88
22333;BME280;11334;36.986;-121.936;2023-02-17T04:34:45;101777.56;;;10.98;61.88
22333;BME280;11334;36.986;-121.936;2023-02-17T04:37:12;101775.41;;;10.83;62.33
22333;BME280;11334;36.986;-121.936;2023-02-17T04:39:38;101781.53;;;10.83;63.04
22333;BME280;11334;36.986;-121.936;2023-02-17T04:42:04;101753.81;;;10.58;63.48
22333;BME280;11334;36.986;-121.936;2023-02-17T04:44:30;101773.81;;;10.71;63.51
22333;BME280;11334;36.986;-121.936;2023-02-17T04:46:57;101787.44;;;10.67;64.47
22333;BME280;11334;36.986;-121.936;2023-02-17T04:49:23;101778.28;;;10.71;63.45
22333;BME280;11334;36.986;-121.936;2023-02-17T04:51:49;101785.25;;;10.72;63.42
22333;BME280;11334;36.986;-121.936;2023-02-17T04:54:15;101774.34;;;10.65;64.04
22333;BME280;11334;36.986;-121.936;2023-02-17T04:56:42;101759.22;;;10.56;64.56
22333;BME280;11334;36.986;-121.936;2023-02-17T04:59:08;101776.28;;;10.63;64.40
22333;BME280;11334;36.986;-121.936;2023-02-17T05:01:34;101777.69;;;10.67;64.46
22333;BME280;11334;36.986;-121.936;2023-02-17T05:04:00;101776.56;;;10.70;64.35
22333;BME280;11334;36.986;-121.936;2023-02-17T05:06:26;101772.81;;;10.63;64.77
22333;BME280;11334;36.986;-121.936;2023-02-17T05:08:53;101774.59;;;10.62;65.46
22333;BME280;11334;36.986;-121.936;2023-02-17T05:11:19;101790.16;;;10.76;65.14
22333;BME280;11334;36.986;-121.936;2023-02-17T05:13:45;101794.91;;;10.73;64.96
22333;BME280;11334;36.986;-121.936;2023-02-17T05:16:12;101795.00;;;10.71;65.26
22333;BME280;11334;36.986;-121.936;2023-02-17T05:18:38;101746.13;;;10.35;65.31
22333;BME280;11334;36.986;-121.936;2023-02-17T05:21:04;101795.56;;;10.65;65.23
22333;BME280;11334;36.986;-121.936;2023-02-17T05:23:31;101766.47;;;10.54;65.52
22333;BME280;11334;36.986;-121.936;2023-02-17T05:25:57;101792.81;;;10.76;66.01
22333;BME280;11334;36.986;-121.936;2023-02-17T05:28:23;101796.81;;;10.71;66.22
22333;BME280;11334;36.986;-121.936;2023-02-17T05:30:50;101787.63;;;10.74;66.51
22333;BME280;11334;36.986;-121.936;2023-02-17T05:33:17;101798.09;;;10.76;65.79
22333;BME280;11334;36.986;-121.936;2023-02-17T05:35:43;101795.13;;;10.70;66.42
22333;BME280;11334;36.986;-121.936;2023-02-17T05:38:09;101796.00;;;10.70;66.50
22333;BME280;11334;36.986;-121.936;2023-02-17T05:40:35;101793.34;;;10.70;66.75
22333;BME280;11334;36.986;-121.936;2023-02-17T05:43:05;101799.31;;;10.72;66.55
22333;BME280;11334;36.986;-121.936;2023-02-17T05:45:31;101794.47;;;10.77;67.14
22333;BME280;11334;36.986;-121.936;2023-02-17T05:47:57;101796.44;;;10.75;66.25
22333;BME280;11334;36.986;-121.936;2023-02-17T05:50:23;101782.97;;;10.67;66.98
22333;BME280;11334;36.986;-121.936;2023-02-17T05:52:50;101800.03;;;10.74;67.57
22333;BME280;11334;36.986;-121.936;2023-02-17T05:55:16;101799.78;;;10.77;67.70
22333;BME280;11334;36.986;-121.936;2023-02-17T05:57:42;101795.72;;;10.73;67.79
22333;BME280;11334;36.986;-121.936;2023-02-17T06:00:09;101796.69;;;10.72;67.09
22333;BME280;11334;36.986;-121.936;2023-02-17T06:02:35;101793.91;;;10.73;67.42
22333;BME280;11334;36.986;-121.936;2023-02-17T06:05:01;101795.13;;;10.70;67.53
22333;BME280;11334;36.986;-121.936;2023-02-17T06:07:28;101791.66;;;10.69;67.76
22333;BME280;11334;36.986;-121.936;2023-02-17T06:09:54;101786.22;;;10.71;68.34
22333;BME280;11334;36.986;-121.936;2023-02-17T06:12:20;101789.84;;;10.70;68.26
22333;BME280;11334;36.986;-121.936;2023-02-17T06:14:46;101794.19;;;10.71;68.13
22333;BME280;11334;36.986;-121.936;2023-02-17T06:17:12;101799.59;;;10.69;68.37
22333;BME280;11334;36.986;-121.936;2023-02-17T06:19:39;101790.13;;;10.46;68.66
22333;BME280;11334;36.986;-121.936;2023-02-17T06:22:05;101794.38;;;10.58;68.41
22333;BME280;11334;36.986;-121.936;2023-02-17T06:24:31;101801.34;;;10.59;68.64
22333;BME280;11334;36.986;-121.936;2023-02-17T06:26:57;101799.50;;;10.50;69.01
22333;BME280;11334;36.986;-121.936;2023-02-17T06:29:24;101796.00;;;10.50;69.06
22333;BME280;11334;36.986;-121.936;2023-02-17T06:31:52;101789.16;;;10.47;69.23
22333;BME280;11334;36.986;-121.936;2023-02-17T06:34:19;101791.34;;;10.42;69.92
22333;BME280;11334;36.986;-121.936;2023-02-17T06:36:45;101794.97;;;10.41;70.15
22333;BME280;11334;36.986;-121.936;2023-02-17T06:39:11;101796.78;;;10.41;69.65
22333;BME280;11334;36.986;-121.936;2023-02-17T06:41:37;101795.91;;;10.31;70.23
22333;BME280;11334;36.986;-121.936;2023-02-17T06:44:04;101799.75;;;10.27;70.62
22333;BME280;11334;36.986;-121.936;2023-02-17T06:46:30;101796.09;;;10.19;70.92
22333;BME280;11334;36.986;-121.936;2023-02-17T06:48:57;101790.78;;;10.19;71.18
22333;BME280;11334;36.986;-121.936;2023-02-17T06:51:24;101800.66;;;10.17;70.90
22333;BME280;11334;36.986;-121.936;2023-02-17T06:53:51;101791.88;;;10.16;71.58
22333;BME280;11334;36.986;-121.936;2023-02-17T06:56:17;101791.50;;;10.21;71.79
22333;BME280;11334;36.986;-121.936;2023-02-17T06:58:43;101787.94;;;10.11;72.13
22333;BME280;11334;36.986;-121.936;2023-02-17T07:01:19;101789.88;;;10.09;71.99
22333;BME280;11334;36.986;-121.936;2023-02-17T07:03:46;101792.78;;;10.06;72.44
22333;BME280;11334;36.986;-121.936;2023-02-17T07:06:13;101794.38;;;9.98;72.92
22333;BME280;11334;36.986;-121.936;2023-02-17T07:08:39;101793.44;;;9.99;73.06
22333;BME280;11334;36.986;-121.936;2023-02-17T07:11:07;101783.78;;;9.98;72.50
22333;BME280;11334;36.986;-121.936;2023-02-17T07:13:34;101794.06;;;9.91;73.42
22333;BME280;11334;36.986;-121.936;2023-02-17T07:16:00;101780.44;;;9.85;73.48
22333;BME280;11334;36.986;-121.936;2023-02-17T07:18:27;101798.25;;;9.83;73.17
22333;BME280;11334;36.986;-121.936;2023-02-17T07:20:53;101783.16;;;9.74;73.29
22333;BME280;11334;36.986;-121.936;2023-02-17T07:23:19;101799.34;;;9.80;73.21
22333;BME280;11334;36.986;-121.936;2023-02-17T07:25:46;101800.59;;;9.77;73.88
22333;BME280;11334;36.986;-121.936;2023-02-17T07:28:12;101801.53;;;9.76;74.10
22333;BME280;11334;36.986;-121.936;2023-02-17T07:30:40;101801.78;;;9.73;74.14
22333;BME280;11334;36.986;-121.936;2023-02-17T07:33:06;101792.66;;;9.66;74.21
22333;BME280;11334;36.986;-121.936;2023-02-17T07:35:33;101804.22;;;9.65;74.54
22333;BME280;11334;36.986;-121.936;2023-02-17T07:38:00;101796.19;;;9.66;74.66
22333;BME280;11334;36.986;-121.936;2023-02-17T07:40:27;101800.25;;;9.70;74.67
22333;BME280;11334;36.986;-121.936;2023-02-17T07:42:55;101799.78;;;9.65;74.42
22333;BME280;11334;36.986;-121.936;2023-02-17T07:45:21;101794.75;;;9.62;74.32
22333;BME280;11334;36.986;-121.936;2023-02-17T07:47:47;101795.09;;;9.58;74.64
22333;BME280;11334;36.986;-121.936;2023-02-17T07:50:14;101793.69;;;9.54;74.56
22333;BME280;11334;36.986;-121.936;2023-02-17T07:52:40;101757.44;;;9.34;74.82
22333;BME280;11334;36.986;-121.936;2023-02-17T07:55:06;101791.06;;;9.43;75.27
22333;BME280;11334;36.986;-121.936;2023-02-17T07:57:32;101793.84;;;9.42;75.33
22333;BME280;11334;36.986;-121.936;2023-02-17T07:59:59;101788.47;;;9.32;75.23
22333;BME280;11334;36.986;-121.936;2023-02-17T08:02:25;101784.84;;;9.33;75.30
22333;BME280;11334;36.986;-121.936;2023-02-17T08:04:51;101780.38;;;9.34;75.23
22333;BME280;11334;36.986;-121.936;2023-02-17T08:07:18;101784.13;;;9.31;75.75
22333;BME280;11334;36.986;-121.936;2023-02-17T08:09:44;101785.94;;;9.31;75.61
22333;BME280;11334;36.986;-121.936;2023-02-17T08:12:29;101778.13;;;9.18;76.02
22333;BME280;11334;36.986;-121.936;2023-02-17T08:15:13;101772.84;;;9.18;75.72
22333;BME280;11334;36.986;-121.936;2023-02-17T08:17:39;101777.94;;;9.00;76.63
22333;BME280;11334;36.986;-121.936;2023-02-17T08:20:06;101771.19;;;8.96;76.72
22333;BME280;11334;36.986;-121.936;2023-02-17T08:22:32;101770.22;;;9.08;76.20
22333;BME280;11334;36.986;-121.936;2023-02-17T08:24:59;101775.78;;;9.05;76.10
22333;BME280;11334;36.986;-121.936;2023-02-17T08:27:25;101772.75;;;8.98;76.62
22333;BME280;11334;36.986;-121.936;2023-02-17T08:29:51;101775.66;;;8.95;76.92
22333;BME280;11334;36.986;-121.936;2023-02-17T08:32:18;101754.19;;;8.67;77.55
22333;BME280;11334;36.986;-121.936;2023-02-17T08:34:44;101780.59;;;8.78;77.07
22333;BME280;11334;36.986;-121.936;2023-02-17T08:37:11;101757.66;;;8.68;78.22
22333;BME280;11334;36.986;-121.936;2023-02-17T08:39:37;101770.50;;;8.83;77.94
22333;BME280;11334;36.986;-121.936;2023-02-17T08:42:04;101771.47;;;8.82;77.43
22333;BME280;11334;36.986;-121.936;2023-02-17T08:44:33;101770.25;;;8.75;77.49
22333;BME280;11334;36.986;-121.936;2023-02-17T08:47:00;101754.41;;;8.64;77.86
22333;BME280;11334;36.986;-121.936;2023-02-17T08:49:27;101766.16;;;8.71;78.21
22333;BME280;11334;36.986;-121.936;2023-02-17T08:51:54;101760.53;;;8.65;77.62
22333;BME280;11334;36.986;-121.936;2023-02-17T08:54:21;101751.41;;;8.58;78.26
22333;BME280;11334;36.986;-121.936;2023-02-17T08:56:47;101760.16;;;8.58;77.75
22333;BME280;11334;36.986;-121.936;2023-02-17T08:59:13;101735.94;;;8.43;77.80
22333;BME280;11334;36.986;-121.936;2023-02-17T09:01:41;101755.00;;;8.46;77.88
22333;BME280;11334;36.986;-121.936;2023-02-17T09:04:09;101752.84;;;8.51;78.38
22333;BME280;11334;36.986;-121.936;2023-02-17T09:06:55;101754.41;;;8.53;77.75
22333;BME280;11334;36.986;-121.936;2023-02-17T09:09:22;101751.28;;;8.38;78.30
22333;BME280;11334;36.986;-121.936;2023-02-17T09:11:52;101744.06;;;8.40;78.11
22333;BME280;11334;36.986;-121.936;2023-02-17T09:14:20;101749.97;;;8.43;77.93
22333;BME280;11334;36.986;-121.936;2023-02-17T09:16:49;101747.44;;;8.42;77.48
22333;BME280;11334;36.986;-121.936;2023-02-17T09:19:16;101747.66;;;8.39;77.80
22333;BME280;11334;36.986;-121.936;2023-02-17T09:21:43;101746.13;;;8.36;78.35
22333;BME280;11334;36.986;-121.936;2023-02-17T09:24:09;101741.91;;;8.34;77.84
22333;BME280;11334;36.986;-121.936;2023-02-17T09:26:35;101734.81;;;8.34;77.88
22333;BME280;11334;36.986;-121.936;2023-02-17T09:29:03;101734.09;;;8.32;77.51
22333;BME280;11334;36.986;-121.936;2023-02-17T09:31:30;101732.53;;;8.30;78.01
22333;BME280;11334;36.986;-121.936;2023-02-17T09:33:57;101725.59;;;8.29;77.45
22333;BME280;11334;36.986;-121.936;2023-02-17T09:36:29;101723.78;;;8.19;78.35
22333;BME280;11334;36.986;-121.936;2023-02-17T09:38:56;101732.53;;;8.19;78.45
22333;BME280;11334;36.986;-121.936;2023-02-17T09:41:44;101725.19;;;8.12;78.50
22333;BME280;11334;36.986;-121.936;2023-02-17T09:44:51;101717.38;;;8.10;78.10
22333;BME280;11334;36.986;-121.936;2023-02-17T09:47:28;101717.00;;;8.04;77.79
22333;BME280;11334;36.986;-121.936;2023-02-17T09:50:02;101709.34;;;8.01;77.74
22333;BME280;11334;36.986;-121.936;2023-02-17T09:52:43;101710.59;;;7.95;78.37
22333;BME280;11334;36.986;-121.936;2023-02-17T09:55:22;101707.13;;;7.95;78.61
22333;BME280;11334;36.986;-121.936;2023-02-17T09:57:55;101669.72;;;7.79;78.18
22333;BME280;11334;36.986;-121.936;2023-02-17T10:00:27;101704.34;;;7.86;77.97
22333;BME280;11334;36.986;-121.936;2023-02-17T10:03:21;101702.28;;;7.78;79.21
22333;BME280;11334;36.986;-121.936;2023-02-17T10:06:09;101703.16;;;7.79;79.24
22333;BME280;11334;36.986;-121.936;2023-02-17T10:09:06;101691.88;;;7.77;78.47
22333;BME280;11334;36.986;-121.936;2023-02-17T10:11:34;101691.88;;;7.77;79.12
22333;BME280;11334;36.986;-121.936;2023-02-17T10:14:15;101690.06;;;7.66;79.57
22333;BME280;11334;36.986;-121.936;2023-02-17T10:16:53;101685.13;;;7.62;79.21
22333;BME280;11334;36.986;-121.936;2023-02-17T10:22:13;101685.38;;;7.59;79.32
22333;BME280;11334;36.986;-121.936;2023-02-17T10:24:41;101675.88;;;7.56;80.17
22333;BME280;11334;36.986;-121.936;2023-02-17T10:27:19;101672.53;;;7.55;79.77
22333;BME280;11334;36.986;-121.936;2023-02-17T10:32:26;101672.00;;;7.39;80.52
22333;BME280;11334;36.986;-121.936;2023-02-17T10:37:49;101667.91;;;7.46;80.44
22333;BME280;11334;36.986;-121.936;2023-02-17T10:40:26;101670.78;;;7.43;79.72
22333;BME280;11334;36.986;-121.936;2023-02-17T10:43:00;101659.03;;;7.36;80.26
22333;BME280;11334;36.986;-121.936;2023-02-17T10:45:40;101656.63;;;7.33;81.45
22333;BME280;11334;36.986;-121.936;2023-02-17T10:48:11;101651.09;;;7.36;80.68
22333;BME280;11334;36.986;-121.936;2023-02-17T10:50:41;101654.22;;;7.30;81.90
22333;BME280;11334;36.986;-121.936;2023-02-17T10:53:21;101640.28;;;7.17;82.47
22333;BME280;11334;36.986;-121.936;2023-02-17T10:55:58;101659.72;;;7.27;83.16
22333;BME280;11334;36.986;-121.936;2023-02-17T10:58:44;101649.91;;;7.29;82.84
22333;BME280;11334;36.986;-121.936;2023-02-17T11:01:13;101625.53;;;7.15;82.37
22333;BME280;11334;36.986;-121.936;2023-02-17T11:03:40;101643.69;;;7.30;82.79
22333;BME280;11334;36.986;-121.936;2023-02-17T11:06:22;101643.19;;;7.25;81.95
22333;BME280;11334;36.986;-121.936;2023-02-17T11:08:53;101635.50;;;7.22;82.67
22333;BME280;11334;36.986;-121.936;2023-02-17T11:11:28;101631.47;;;7.29;82.94
22333;BME280;11334;36.986;-121.936;2023-02-17T11:16:43;101640.88;;;7.21;83.29
22333;BME280;11334;36.986;-121.936;2023-02-17T11:19:26;101626.47;;;7.14;83.62
22333;BME280;11334;36.986;-121.936;2023-02-17T11:21:54;101610.72;;;7.01;83.94
22333;BME280;11334;36.986;-121.936;2023-02-17T11:24:21;101626.47;;;7.14;83.37
22333;BME280;11334;36.986;-121.936;2023-02-17T11:27:00;101620.84;;;7.07;84.43
22333;BME280;11334;36.986;-121.936;2023-02-17T11:29:27;101621.09;;;7.15;84.06
22333;BME280;11334;36.986;-121.936;2023-02-17T11:32:00;101612.88;;;7.20;83.43
22333;BME280;11334;36.986;-121.936;2023-02-17T11:34:33;101611.97;;;7.08;84.13
22333;BME280;11334;36.986;-121.936;2023-02-17T11:39:27;101612.47;;;7.13;83.88
22333;BME280;11334;36.986;-121.936;2023-02-17T11:41:53;101599.63;;;7.09;83.61
22333;BME280;11334;36.986;-121.936;2023-02-17T11:44:24;101607.75;;;7.06;84.60
22333;BME280;11334;36.986;-121.936;2023-02-17T11:50:14;101610.13;;;6.98;84.59
22333;BME280;11334;36.986;-121.936;2023-02-17T11:52:56;101607.75;;;7.06;84.31
22333;BME280;11334;36.986;-121.936;2023-02-17T11:55:39;101599.25;;;7.02;85.04
22333;BME280;11334;36.986;-121.936;2023-02-17T11:58:27;101603.47;;;7.05;83.89
22333;BME280;11334;36.986;-121.936;2023-02-17T12:03:46;101593.75;;;7.05;84.36
22333;BME280;11334;36.986;-121.936;2023-02-17T12:06:36;101600.19;;;7.01;84.48
22333;BME280;11334;36.986;-121.936;2023-02-17T12:12:04;101586.03;;;6.92;84.99
22333;BME280;11334;36.986;-121.936;2023-02-17T12:23:17;101597.78;;;6.98;83.83
22333;BME280;11334;36.986;-121.936;2023-02-17T12:25:56;101587.72;;;6.93;83.61
22333;BME280;11334;36.986;-121.936;2023-02-17T12:34:00;101584.69;;;6.86;83.89
22333;BME280;11334;36.986;-121.936;2023-02-17T12:36:32;101575.69;;;6.78;83.22
22333;BME280;11334;36.986;-121.936;2023-02-17T12:45:02;101578.47;;;6.64;82.61
22333;BME280;11334;36.986;-121.936;2023-02-17T12:53:01;101568.09;;;6.62;82.43
22333;BME280;11334;36.986;-121.936;2023-02-17T12:55:49;101527.00;;;6.37;82.36
22333;BME280;11334;36.986;-121.936;2023-02-17T12:58:20;101561.16;;;6.49;82.50
22333;BME280;11334;36.986;-121.936;2023-02-17T13:00:57;101558.72;;;6.59;81.46
22333;BME280;11334;36.986;-121.936;2023-02-17T13:03:29;101553.41;;;6.48;81.79
22333;BME280;11334;36.986;-121.936;2023-02-17T13:08:31;101554.09;;;6.50;81.43
22333;BME280;11334;36.986;-121.936;2023-02-17T13:11:10;101550.53;;;6.51;81.12
22333;BME280;11334;36.986;-121.936;2023-02-17T13:13:37;101544.22;;;6.53;81.01
22333;BME280;11334;36.986;-121.936;2023-02-17T13:16:07;101554.09;;;6.50;80.16
22333;BME280;11334;36.986;-121.936;2023-02-17T13:18:40;101555.31;;;6.46;80.17
22333;BME280;11334;36.986;-121.936;2023-02-17T13:24:02;101549.13;;;6.34;79.88
22333;BME280;11334;36.986;-121.936;2023-02-17T13:26:42;101551.75;;;6.34;79.43
22333;BME280;11334;36.986;-121.936;2023-02-17T13:31:52;101528.38;;;6.07;80.17
22333;BME280;11334;36.986;-121.936;2023-02-17T13:34:30;101554.28;;;6.00;80.39
22333;BME280;11334;36.986;-121.936;2023-02-17T13:36:59;101549.34;;;5.96;80.81
22333;BME280;11334;36.986;-121.936;2023-02-17T13:41:59;101542.53;;;5.94;79.71
22333;BME280;11334;36.986;-121.936;2023-02-17T13:44:41;101526.56;;;5.72;79.17
22333;BME280;11334;36.986;-121.936;2023-02-17T13:50:34;101541.28;;;5.74;79.10
22333;BME280;11334;36.986;-121.936;2023-02-17T13:53:07;101540.44;;;5.74;79.22
22333;BME280;11334;36.986;-121.936;2023-02-17T13:55:44;101539.72;;;5.72;78.00
22333;BME280;11334;36.986;-121.936;2023-02-17T13:58:10;101540.31;;;5.75;78.09
22333;BME280;11334;36.986;-121.936;2023-02-17T14:00:37;101545.16;;;5.69;79.17